createdAt,value
2019-02-19T00:01:37.212Z,36.37
2019-02-19T00:04:10.750Z,36.13
2019-02-19T00:06:41.307Z,37.07
2019-02-19T00:09:11.838Z,38.03
2019-02-19T00:11:42.364Z,38.97
2019-02-19T00:14:16.030Z,37.33
2019-02-19T00:16:46.628Z,40.13
2019-02-19T00:19:17.202Z,37.60
2019-02-19T00:21:47.855Z,37.77
2019-02-19T00:24:18.413Z,45.80
2019-02-19T00:26:48.996Z,42.20
2019-02-19T00:29:19.927Z,46.07
2019-02-19T00:31:50.465Z,43.67
2019-02-19T00:34:20.979Z,39.17
2019-02-19T00:36:51.579Z,40.60
2019-02-19T00:39:22.094Z,42.80
2019-02-19T00:41:52.674Z,43.03
2019-02-19T00:44:23.225Z,42.43
2019-02-19T00:46:54.181Z,43.73
2019-02-19T00:49:24.728Z,45.67
2019-02-19T00:51:55.327Z,46.67
2019-02-19T00:54:25.847Z,41.80
2019-02-19T00:56:56.387Z,40.63
2019-02-19T00:59:26.932Z,42.90
2019-02-19T01:01:57.500Z,42.13
2019-02-19T01:04:28.052Z,42.07
2019-02-19T01:06:58.963Z,40.80
2019-02-19T01:09:29.580Z,41.17
2019-02-19T01:12:00.090Z,38.17
2019-02-19T01:14:31.007Z,41.53
2019-02-19T01:17:02.492Z,38.83
2019-02-19T01:19:33.160Z,42.00
2019-02-19T01:22:03.830Z,40.43
2019-02-19T01:24:34.353Z,40.13
2019-02-19T01:27:04.962Z,42.40
2019-02-19T01:29:35.491Z,40.63
2019-02-19T01:32:06.323Z,40.93
2019-02-19T01:34:36.858Z,39.47
2019-02-19T01:37:07.406Z,41.13
2019-02-19T01:39:37.976Z,42.73
2019-02-19T01:42:08.507Z,43.03
2019-02-19T01:44:39.040Z,40.47
2019-02-19T01:47:09.609Z,41.47
2019-02-19T01:49:40.127Z,43.03
2019-02-19T01:52:10.703Z,40.37
2019-02-19T01:54:41.292Z,44.47
2019-02-19T01:57:11.863Z,38.43
2019-02-19T01:59:42.403Z,46.63
2019-02-19T02:02:12.988Z,45.60
2019-02-19T02:04:43.709Z,43.13
2019-02-19T02:07:15.269Z,47.20
2019-02-19T02:09:45.944Z,43.27
2019-02-19T02:12:17.047Z,43.93
2019-02-19T02:14:48.513Z,42.47
2019-02-19T02:17:19.263Z,42.03
2019-02-19T02:19:49.875Z,43.70
2019-02-19T02:22:24.420Z,43.40
2019-02-19T02:24:55.347Z,42.20
2019-02-19T02:27:25.928Z,39.53
2019-02-19T02:29:56.530Z,42.80
2019-02-19T02:32:27.147Z,46.77
2019-02-19T02:34:57.680Z,42.37
2019-02-19T02:37:28.334Z,46.80
2019-02-19T02:39:58.883Z,45.17
2019-02-19T02:42:29.941Z,46.67
2019-02-19T02:45:00.522Z,46.90
2019-02-19T02:47:31.055Z,42.83
2019-02-19T02:50:01.716Z,44.30
2019-02-19T02:52:32.248Z,43.00
2019-02-19T02:55:03.181Z,44.53
2019-02-19T02:57:33.699Z,45.30
2019-02-19T03:00:04.309Z,44.67
2019-02-19T03:02:34.876Z,43.07
2019-02-19T03:05:05.405Z,46.90
2019-02-19T03:07:48.698Z,45.50
2019-02-19T03:10:19.324Z,43.77
2019-02-19T03:12:49.897Z,45.67
2019-02-19T03:15:20.468Z,41.93
2019-02-19T03:17:51.121Z,45.43
2019-02-19T03:20:21.638Z,42.70
2019-02-19T03:22:52.181Z,43.10
2019-02-19T03:25:23.828Z,41.53
2019-02-19T03:27:54.894Z,42.43
2019-02-19T03:30:25.464Z,42.23
2019-02-19T03:32:56.028Z,41.03
2019-02-19T03:35:26.535Z,41.83
2019-02-19T03:37:57.140Z,40.83
2019-02-19T03:40:27.660Z,42.73
2019-02-19T03:42:58.213Z,41.37
2019-02-19T03:45:28.753Z,41.30
2019-02-19T03:47:59.297Z,40.80
2019-02-19T03:50:29.850Z,42.20
2019-02-19T03:53:00.399Z,40.83
2019-02-19T03:55:31.468Z,43.60
2019-02-19T03:58:02.253Z,42.50
2019-02-19T04:00:33.036Z,41.87
2019-02-19T04:03:03.579Z,42.00
2019-02-19T04:05:36.184Z,40.93
2019-02-19T04:08:06.723Z,38.87
2019-02-19T04:10:37.267Z,42.73
2019-02-19T04:13:11.120Z,42.80
2019-02-19T04:15:42.738Z,42.50
2019-02-19T04:18:14.032Z,44.07
2019-02-19T04:20:45.083Z,42.07
2019-02-19T04:23:16.034Z,43.63
2019-02-19T04:25:46.606Z,42.27
2019-02-19T04:28:17.165Z,42.53
2019-02-19T04:30:47.700Z,41.70
2019-02-19T04:33:18.278Z,44.73
2019-02-19T04:35:48.839Z,43.77
2019-02-19T04:38:19.472Z,44.27
2019-02-19T04:40:50.002Z,45.60
2019-02-19T04:43:20.550Z,45.47
2019-02-19T04:45:51.116Z,45.43
2019-02-19T04:48:21.692Z,44.33
2019-02-19T04:50:52.244Z,46.33
2019-02-19T04:53:22.779Z,45.83
2019-02-19T04:55:53.705Z,45.57
2019-02-19T04:58:24.251Z,45.47
2019-02-19T05:00:54.842Z,43.70
2019-02-19T05:03:25.413Z,45.43
2019-02-19T05:05:55.955Z,45.37
2019-02-19T05:08:26.512Z,43.73
2019-02-19T05:10:57.047Z,43.17
2019-02-19T05:13:27.605Z,44.63
2019-02-19T05:15:58.118Z,44.90
2019-02-19T05:18:28.688Z,46.60
2019-02-19T05:20:59.251Z,46.50
2019-02-19T05:23:29.815Z,46.37
2019-02-19T05:26:00.392Z,46.93
2019-02-19T05:28:30.910Z,44.33
2019-02-19T05:31:01.478Z,46.20
2019-02-19T05:33:32.023Z,45.23
2019-02-19T05:36:02.585Z,47.93
2019-02-19T05:38:33.140Z,44.67
2019-02-19T05:41:03.793Z,46.27
2019-02-19T05:43:34.360Z,48.03
2019-02-19T05:46:04.895Z,49.87
2019-02-19T05:48:35.436Z,47.93
2019-02-19T05:51:08.408Z,46.43
2019-02-19T05:53:38.934Z,48.63
2019-02-19T05:56:09.453Z,47.17
2019-02-19T05:58:40.020Z,47.13
2019-02-19T06:01:10.750Z,50.27
2019-02-19T06:03:41.251Z,47.20
2019-02-19T06:06:11.800Z,47.30
2019-02-19T06:08:42.308Z,47.27
2019-02-19T06:11:12.867Z,48.67
2019-02-19T06:13:43.391Z,49.47
2019-02-19T06:16:13.927Z,47.93
2019-02-19T06:18:44.473Z,48.77
2019-02-19T06:21:15.049Z,47.40
2019-02-19T06:23:45.684Z,48.60
2019-02-19T06:26:16.258Z,48.83
2019-02-19T06:28:46.733Z,51.07
2019-02-19T06:31:17.311Z,50.38
2019-02-19T06:33:48.268Z,49.80
2019-02-19T06:36:18.842Z,50.87
2019-02-19T06:38:49.392Z,50.27
2019-02-19T06:41:19.951Z,49.43
2019-02-19T06:43:50.503Z,49.83
2019-02-19T06:46:21.079Z,49.73
2019-02-19T06:48:51.663Z,51.27
2019-02-19T06:51:22.211Z,49.73
2019-02-19T06:53:52.985Z,50.57
2019-02-19T06:56:23.547Z,51.83
2019-02-19T06:58:54.064Z,50.63
2019-02-19T07:01:52.867Z,48.90
2019-02-19T07:04:39.514Z,51.07
2019-02-19T07:07:10.084Z,51.77
2019-02-19T07:09:40.644Z,51.07
2019-02-19T07:12:11.184Z,52.87
2019-02-19T07:14:41.720Z,52.33
2019-02-19T07:17:15.655Z,51.27
2019-02-19T07:19:44.427Z,50.23
2019-02-19T07:22:14.947Z,52.03
2019-02-19T07:24:45.511Z,51.10
2019-02-19T07:27:16.345Z,52.17
2019-02-19T07:29:46.915Z,50.77
2019-02-19T07:32:17.421Z,51.13
2019-02-19T07:34:48.043Z,50.90
2019-02-19T07:37:18.554Z,50.37
2019-02-19T07:39:49.095Z,49.57
2019-02-19T07:42:19.622Z,49.40
2019-02-19T07:44:50.155Z,48.37
2019-02-19T07:47:24.602Z,51.07
2019-02-19T07:49:52.889Z,45.83
2019-02-19T07:52:23.439Z,45.47
2019-02-19T07:54:53.984Z,45.87
2019-02-19T07:57:24.515Z,45.17
2019-02-19T07:59:55.097Z,44.13
2019-02-19T08:02:25.596Z,45.43
2019-02-19T08:04:56.169Z,47.30
2019-02-19T08:07:26.695Z,44.27
2019-02-19T08:09:57.239Z,42.60
2019-02-19T08:12:27.798Z,42.93
2019-02-19T08:14:58.421Z,40.60
2019-02-19T08:17:33.313Z,38.60
2019-02-19T08:20:01.095Z,38.13
2019-02-19T08:22:31.645Z,34.40
2019-02-19T08:25:02.195Z,32.50
2019-02-19T08:27:32.779Z,30.13
2019-02-19T08:30:03.756Z,31.43
2019-02-19T08:32:34.347Z,31.97
2019-02-19T08:35:05.009Z,30.63
2019-02-19T08:37:38.022Z,30.10
2019-02-19T08:40:08.938Z,29.27
2019-02-19T08:42:39.488Z,27.37
2019-02-19T08:45:10.139Z,27.40
2019-02-19T08:47:42.875Z,25.27
2019-02-19T08:50:12.857Z,26.43
2019-02-19T08:52:43.416Z,26.33
2019-02-19T08:55:13.954Z,25.73
2019-02-19T08:57:44.495Z,25.90
2019-02-19T09:00:18.802Z,23.37
2019-02-19T09:02:49.392Z,23.80
2019-02-19T09:05:19.904Z,24.60
2019-02-19T09:07:50.661Z,24.90
2019-02-19T09:10:21.523Z,24.33
2019-02-19T09:12:52.058Z,24.43
2019-02-19T09:15:22.605Z,24.43
2019-02-19T09:17:53.265Z,23.37
2019-02-19T09:20:24.347Z,22.47
2019-02-19T09:22:54.912Z,23.30
2019-02-19T09:25:25.432Z,21.50
2019-02-19T09:27:55.960Z,22.00
2019-02-19T09:30:26.478Z,21.80
2019-02-19T09:32:57.033Z,21.50
2019-02-19T09:35:27.546Z,19.40
2019-02-19T09:37:58.311Z,17.80
2019-02-19T09:40:28.844Z,17.50
2019-02-19T09:42:59.371Z,18.67
2019-02-19T09:45:29.908Z,18.03
2019-02-19T09:48:01.472Z,17.60
2019-02-19T09:50:32.253Z,17.70
2019-02-19T09:53:02.751Z,15.93
2019-02-19T09:55:33.345Z,17.50
2019-02-19T09:58:04.082Z,15.70
2019-02-19T10:00:36.349Z,16.20
2019-02-19T10:03:06.893Z,15.53
2019-02-19T10:05:37.420Z,15.90
2019-02-19T10:08:07.948Z,15.33
2019-02-19T10:10:38.551Z,15.03
2019-02-19T10:13:09.075Z,14.40
2019-02-19T10:15:39.940Z,14.90
2019-02-19T10:18:10.712Z,14.00
2019-02-19T10:20:41.271Z,13.67
2019-02-19T10:23:11.948Z,12.67
2019-02-19T10:25:42.507Z,13.53
2019-02-19T10:28:13.931Z,12.10
2019-02-19T10:30:44.555Z,13.23
2019-02-19T10:33:15.107Z,11.50
2019-02-19T10:35:45.888Z,10.97
2019-02-19T10:38:16.494Z,10.93
2019-02-19T10:40:47.082Z,10.60
2019-02-19T10:43:17.607Z,10.43
2019-02-19T10:45:48.191Z,10.10
2019-02-19T10:48:19.422Z,10.13
2019-02-19T10:50:50.041Z,9.50
2019-02-19T10:53:20.594Z,9.70
2019-02-19T10:55:51.087Z,8.70
2019-02-19T10:58:23.212Z,9.10
2019-02-19T11:00:53.925Z,8.50
2019-02-19T11:03:25.387Z,9.10
2019-02-19T11:05:56.491Z,8.47
2019-02-19T11:08:27.030Z,7.50
2019-02-19T11:10:57.551Z,7.87
2019-02-19T11:13:28.107Z,7.83
2019-02-19T11:15:58.639Z,6.97
2019-02-19T11:18:29.252Z,7.47
2019-02-19T11:20:59.784Z,8.13
2019-02-19T11:23:30.339Z,7.27
2019-02-19T11:26:00.918Z,6.37
2019-02-19T11:28:31.514Z,6.53
2019-02-19T11:31:02.051Z,7.00
2019-02-19T11:33:32.632Z,6.83
2019-02-19T11:36:03.607Z,6.80
2019-02-19T11:38:34.200Z,8.23
2019-02-19T11:41:04.752Z,6.73
2019-02-19T11:43:35.304Z,6.43
2019-02-19T11:46:06.177Z,7.37
2019-02-19T11:48:37.247Z,6.47
2019-02-19T11:51:07.931Z,7.13
2019-02-19T11:53:38.499Z,7.30
2019-02-19T11:56:09.067Z,6.93
2019-02-19T11:58:39.698Z,6.77
2019-02-19T12:01:10.281Z,7.13
2019-02-19T12:03:40.863Z,6.30
2019-02-19T12:06:11.421Z,6.93
2019-02-19T12:08:41.933Z,5.97
2019-02-19T12:11:14.234Z,6.07
2019-02-19T12:13:44.784Z,7.47
2019-02-19T12:16:15.360Z,7.00
2019-02-19T12:18:46.517Z,7.00
2019-02-19T12:21:17.204Z,7.00
2019-02-19T12:23:47.786Z,6.20
2019-02-19T12:26:18.557Z,6.13
2019-02-19T12:28:49.159Z,6.40
2019-02-19T12:31:19.897Z,5.83
2019-02-19T12:33:50.754Z,5.73
2019-02-19T12:36:21.310Z,5.60
2019-02-19T12:38:51.867Z,5.20
2019-02-19T12:41:22.466Z,4.97
2019-02-19T12:43:53.033Z,5.50
2019-02-19T12:46:23.551Z,5.57
2019-02-19T12:48:54.880Z,4.87
2019-02-19T12:51:26.730Z,5.00
2019-02-19T12:53:57.404Z,4.57
2019-02-19T12:56:28.003Z,4.53
2019-02-19T12:58:58.543Z,4.80
2019-02-19T13:01:29.147Z,4.10
2019-02-19T13:03:59.696Z,4.60
2019-02-19T13:06:32.347Z,9.93
2019-02-19T13:09:04.903Z,4.17
2019-02-19T13:11:36.299Z,3.70
2019-02-19T13:14:07.542Z,3.80
2019-02-19T13:16:38.115Z,3.53
2019-02-19T13:19:08.661Z,3.33
2019-02-19T13:21:39.189Z,4.30
2019-02-19T13:24:09.824Z,3.77
2019-02-19T13:26:40.351Z,3.30
2019-02-19T13:29:10.874Z,3.63
2019-02-19T13:31:41.408Z,4.07
2019-02-19T13:34:11.919Z,3.57
2019-02-19T13:36:42.488Z,3.57
2019-02-19T13:39:13.244Z,3.27
2019-02-19T13:41:43.845Z,3.97
2019-02-19T13:44:14.391Z,4.03
2019-02-19T13:46:44.968Z,4.20
2019-02-19T13:49:15.508Z,4.00
2019-02-19T13:51:46.031Z,3.63
2019-02-19T13:54:27.295Z,3.90
2019-02-19T13:56:57.846Z,3.87
2019-02-19T13:59:28.390Z,4.53
2019-02-19T14:01:59.115Z,3.50
2019-02-19T14:04:29.751Z,4.00
2019-02-19T14:07:00.472Z,3.90
2019-02-19T14:09:31.446Z,4.00
2019-02-19T14:12:02.008Z,3.50
2019-02-19T14:15:06.753Z,3.63
2019-02-19T14:17:37.307Z,4.40
2019-02-19T14:20:39.028Z,4.10
2019-02-19T14:23:28.509Z,3.90
2019-02-19T14:26:27.191Z,3.13
2019-02-19T14:29:14.759Z,4.00
2019-02-19T14:31:56.981Z,3.30
2019-02-19T14:34:49.283Z,3.43
2019-02-19T14:37:39.387Z,3.63
2019-02-19T14:40:27.931Z,3.13
2019-02-19T14:43:15.212Z,3.30
2019-02-19T14:45:58.579Z,2.90
2019-02-19T14:48:46.736Z,2.80
2019-02-19T14:51:42.093Z,2.67
2019-02-19T14:54:43.784Z,2.23
2019-02-19T14:57:42.105Z,2.02
2019-02-19T15:00:44.250Z,2.20
2019-02-19T15:03:49.090Z,2.00
2019-02-19T15:06:44.260Z,1.80
2019-02-19T15:09:36.715Z,1.93
2019-02-19T15:12:17.667Z,1.67
2019-02-19T15:15:05.906Z,1.97
2019-02-19T15:17:54.265Z,1.60
2019-02-19T15:20:43.328Z,3.10
2019-02-19T15:23:38.672Z,1.77
2019-02-19T15:26:37.087Z,1.93
2019-02-19T15:29:15.922Z,2.03
2019-02-19T15:32:06.515Z,2.10
2019-02-19T15:35:02.355Z,1.60
2019-02-19T15:37:45.224Z,2.13
2019-02-19T15:40:27.631Z,2.43
2019-02-19T15:43:16.672Z,2.10
2019-02-19T15:46:05.191Z,1.77
2019-02-19T15:48:54.753Z,2.30
2019-02-19T15:51:47.238Z,1.80
2019-02-19T15:54:39.920Z,2.25
2019-02-19T15:57:32.196Z,1.57
2019-02-19T16:00:20.516Z,1.83
2019-02-19T16:02:56.353Z,1.80
2019-02-19T16:06:01.036Z,1.60
2019-02-19T16:08:40.663Z,1.63
2019-02-19T16:11:19.829Z,1.70
2019-02-19T16:14:05.447Z,1.80
2019-02-19T16:17:07.243Z,1.43
2019-02-19T16:19:57.025Z,1.50
2019-02-19T16:22:46.108Z,1.97
2019-02-19T16:25:35.621Z,1.47
2019-02-19T16:28:31.890Z,1.30
2019-02-19T16:31:18.692Z,1.67
2019-02-19T16:34:04.797Z,1.50
2019-02-19T16:37:09.343Z,1.40
2019-02-19T16:39:57.803Z,1.73
2019-02-19T16:42:47.982Z,1.73
2019-02-19T16:45:43.531Z,1.33
2019-02-19T16:48:45.139Z,2.47
2019-02-19T16:51:43.680Z,2.35
2019-02-19T16:54:30.428Z,2.53
2019-02-19T16:57:29.344Z,2.00
2019-02-19T17:00:14.440Z,2.03
2019-02-19T17:02:55.246Z,2.13
2019-02-19T17:05:53.779Z,2.33
2019-02-19T17:09:00.370Z,3.80
2019-02-19T17:11:48.367Z,2.10
2019-02-19T17:14:37.923Z,2.52
2019-02-19T17:17:26.303Z,2.40
2019-02-19T17:20:31.569Z,2.60
2019-02-19T17:23:29.869Z,2.43
2019-02-19T17:26:17.435Z,2.23
2019-02-19T17:29:09.562Z,2.30
2019-02-19T17:31:45.907Z,2.40
2019-02-19T17:34:25.291Z,2.57
2019-02-19T17:37:20.777Z,2.53
2019-02-19T17:40:10.276Z,2.17
2019-02-19T17:42:59.845Z,2.33
2019-02-19T17:45:52.104Z,2.20
2019-02-19T17:48:41.639Z,2.37
2019-02-19T17:51:25.078Z,2.10
2019-02-19T17:54:13.155Z,2.70
2019-02-19T17:57:02.595Z,1.90
2019-02-19T18:00:00.428Z,2.13
2019-02-19T18:02:59.023Z,2.73
2019-02-19T18:05:55.062Z,2.90
2019-02-19T18:08:41.541Z,3.23
2019-02-19T18:11:46.094Z,2.70
2019-02-19T18:14:38.774Z,2.40
2019-02-19T18:17:27.375Z,2.60
2019-02-19T18:19:57.935Z,2.43
2019-02-19T18:22:28.556Z,2.17
2019-02-19T18:24:59.046Z,2.23
2019-02-19T18:27:29.607Z,2.13
2019-02-19T18:30:00.337Z,2.27
2019-02-19T18:32:30.953Z,2.00
2019-02-19T18:35:01.650Z,1.97
2019-02-19T18:37:32.228Z,2.47
2019-02-19T18:40:02.757Z,2.00
2019-02-19T18:42:33.266Z,2.20
2019-02-19T18:45:03.891Z,2.50
2019-02-19T18:47:34.357Z,2.53
2019-02-19T18:50:05.229Z,2.23
2019-02-19T18:52:35.755Z,1.70
2019-02-19T18:55:06.413Z,2.03
2019-02-19T18:57:36.924Z,2.20
2019-02-19T19:00:08.737Z,2.97
2019-02-19T19:02:39.235Z,2.00
2019-02-19T19:05:09.775Z,2.20
2019-02-19T19:07:40.306Z,2.03
2019-02-19T19:10:10.975Z,2.20
2019-02-19T19:12:41.535Z,1.57
2019-02-19T19:15:12.071Z,1.83
2019-02-19T19:17:42.601Z,1.97
2019-02-19T19:20:13.197Z,1.87
2019-02-19T19:22:43.726Z,2.10
2019-02-19T19:25:14.258Z,2.30
2019-02-19T19:27:45.287Z,1.70
2019-02-19T19:30:16.195Z,1.90
2019-02-19T19:32:46.755Z,1.67
2019-02-19T19:35:17.253Z,2.00
2019-02-19T19:37:47.810Z,2.30
2019-02-19T19:40:18.361Z,2.20
2019-02-19T19:42:48.879Z,2.40
2019-02-19T19:45:19.836Z,2.67
2019-02-19T19:47:50.448Z,4.03
2019-02-19T19:50:22.591Z,2.43
2019-02-19T19:52:53.187Z,3.50
2019-02-19T19:55:23.722Z,4.33
2019-02-19T19:57:54.243Z,1.70
2019-02-19T20:00:27.433Z,1.80
2019-02-19T20:02:57.963Z,2.03
2019-02-19T20:05:28.491Z,1.57
2019-02-19T20:07:59.356Z,1.77
2019-02-19T20:10:29.932Z,2.13
2019-02-19T20:13:00.466Z,2.50
2019-02-19T20:15:30.991Z,2.13
2019-02-19T20:18:01.518Z,2.47
2019-02-19T20:20:32.080Z,2.43
2019-02-19T20:23:02.592Z,2.93
2019-02-19T20:25:33.173Z,1.97
2019-02-19T20:28:03.681Z,2.03
2019-02-19T20:30:34.591Z,2.00
2019-02-19T20:33:05.160Z,2.07
2019-02-19T20:35:37.739Z,1.93
2019-02-19T20:38:08.253Z,1.60
2019-02-19T20:40:38.831Z,2.20
2019-02-19T20:43:09.415Z,2.20
2019-02-19T20:45:40.272Z,2.73
2019-02-19T20:48:10.807Z,2.53
2019-02-19T20:50:41.343Z,2.70
2019-02-19T20:53:11.847Z,1.93
2019-02-19T20:55:42.438Z,4.07
2019-02-19T20:58:13.067Z,2.10
2019-02-19T21:00:43.571Z,2.27
2019-02-19T21:03:14.118Z,1.90
2019-02-19T21:05:44.699Z,2.10
2019-02-19T21:08:15.205Z,2.47
2019-02-19T21:10:45.756Z,2.67
2019-02-19T21:13:16.273Z,2.43
2019-02-19T21:15:46.776Z,2.10
2019-02-19T21:18:17.316Z,2.10
2019-02-19T21:20:47.843Z,1.87
2019-02-19T21:23:18.372Z,1.60
2019-02-19T21:25:48.932Z,2.37
2019-02-19T21:28:19.829Z,2.03
2019-02-19T21:30:50.357Z,2.40
2019-02-19T21:33:20.917Z,2.20
2019-02-19T21:35:52.847Z,2.20
2019-02-19T21:38:27.870Z,2.37
2019-02-19T21:40:58.471Z,2.63
2019-02-19T21:43:28.991Z,2.47
2019-02-19T21:45:59.655Z,2.63
2019-02-19T21:48:30.244Z,2.20
2019-02-19T21:51:00.770Z,1.90
2019-02-19T21:53:31.367Z,2.33
2019-02-19T21:56:01.916Z,1.97
2019-02-19T21:58:32.603Z,1.83
2019-02-19T22:01:03.169Z,3.63
2019-02-19T22:03:33.713Z,2.37
2019-02-19T22:06:04.244Z,3.00
2019-02-19T22:08:34.825Z,2.27
2019-02-19T22:11:05.375Z,2.70
2019-02-19T22:13:35.908Z,2.20
2019-02-19T22:16:06.467Z,2.43
2019-02-19T22:18:36.977Z,1.73
2019-02-19T22:21:26.258Z,2.40
2019-02-19T22:23:56.793Z,2.30
2019-02-19T22:26:27.320Z,2.47
2019-02-19T22:28:57.863Z,2.50
2019-02-19T22:31:28.374Z,2.00
2019-02-19T22:33:58.912Z,2.30
2019-02-19T22:36:29.491Z,3.40
2019-02-19T22:38:59.992Z,3.57
2019-02-19T22:41:30.510Z,3.27
2019-02-19T22:44:01.062Z,3.10
2019-02-19T22:46:31.699Z,2.57
2019-02-19T22:49:02.254Z,2.97
2019-02-19T22:51:32.797Z,3.53
2019-02-19T22:54:08.115Z,3.10
2019-02-19T22:56:41.194Z,3.73
2019-02-19T22:59:11.758Z,2.97
2019-02-19T23:01:49.939Z,2.67
2019-02-19T23:04:20.498Z,3.23
2019-02-19T23:06:51.042Z,2.30
2019-02-19T23:09:21.560Z,2.43
2019-02-19T23:11:52.123Z,2.63
2019-02-19T23:14:22.702Z,2.70
2019-02-19T23:16:53.211Z,2.13
2019-02-19T23:19:23.751Z,2.30
2019-02-19T23:21:54.451Z,3.37
2019-02-19T23:24:24.969Z,2.80
2019-02-19T23:26:55.524Z,2.83
2019-02-19T23:29:26.043Z,3.30
2019-02-19T23:31:56.589Z,2.63
2019-02-19T23:34:27.106Z,2.40
2019-02-19T23:37:01.500Z,2.37
2019-02-19T23:39:32.114Z,2.50
2019-02-19T23:42:02.667Z,1.97
2019-02-19T23:44:33.219Z,2.73
2019-02-19T23:47:03.732Z,2.10
2019-02-19T23:49:34.211Z,2.17
2019-02-19T23:52:04.763Z,2.10
2019-02-19T23:54:35.299Z,2.17
2019-02-19T23:57:05.893Z,2.30
2019-02-19T23:59:36.473Z,2.17
